Barlestone, United Kingdom
Current Conditions -  °F | °C
As of 8:20 PM on Thursday 29 Jan 2015 (Local Time) from EGNX Reporting Station
Light Snow Light Snow  
Wind Chill: 22°   Ceiling: 1700
Heat Index: 32°   Visibility: 5mi
Dew Point: 32°   Wind: 15mph
Humidity: 100%   Direction: 260°W
Pressure: 28.82"   Gusts: NA
Location:  52.65°N, 1.37°W
Report Text: EGNX 292020Z 26013KT 8000 -SN SCT006 BKN017 00/00 Q0976
Loading
Personal Weather Stations






























Interactive Weather Map New forecast layout! Learn more

10-Day Weather Forecast

Advertisements
Track Severe Weather on mobile